sensor_id;sensor_type;location;lat;lon;timestamp;temperature;humidity
9209;DHT22;4639;48.862;9.188;2024-02-26T00:00:32;9.20;99.90
9209;DHT22;4639;48.862;9.188;2024-02-26T00:03:00;9.20;99.90
9209;DHT22;4639;48.862;9.188;2024-02-26T00:05:26;9.30;99.90
9209;DHT22;4639;48.862;9.188;2024-02-26T00:07:51;9.30;99.90
9209;DHT22;4639;48.862;9.188;2024-02-26T00:10:18;9.20;99.90
9209;DHT22;4639;48.862;9.188;2024-02-26T00:12:44;9.20;99.90
9209;DHT22;4639;48.862;9.188;2024-02-26T00:15:10;9.20;99.90
9209;DHT22;4639;48.862;9.188;2024-02-26T00:17:36;9.20;99.90
9209;DHT22;4639;48.862;9.188;2024-02-26T00:20:05;9.20;99.90
9209;DHT22;4639;48.862;9.188;2024-02-26T00:22:34;9.20;99.90
9209;DHT22;4639;48.862;9.188;2024-02-26T00:24:59;9.20;99.90
9209;DHT22;4639;48.862;9.188;2024-02-26T00:27:25;9.10;99.90
9209;DHT22;4639;48.862;9.188;2024-02-26T00:29:51;9.10;99.90
9209;DHT22;4639;48.862;9.188;2024-02-26T00:32:16;9.10;99.90
9209;DHT22;4639;48.862;9.188;2024-02-26T00:34:42;9.10;99.90
9209;DHT22;4639;48.862;9.188;2024-02-26T00:37:07;9.00;99.90
9209;DHT22;4639;48.862;9.188;2024-02-26T00:39:33;8.90;99.90
9209;DHT22;4639;48.862;9.188;2024-02-26T00:41:58;8.80;99.90
9209;DHT22;4639;48.862;9.188;2024-02-26T00:44:24;8.70;99.90
9209;DHT22;4639;48.862;9.188;2024-02-26T00:46:50;8.90;99.90
9209;DHT22;4639;48.862;9.188;2024-02-26T00:49:15;8.90;99.90
9209;DHT22;4639;48.862;9.188;2024-02-26T00:51:41;9.00;99.90
9209;DHT22;4639;48.862;9.188;2024-02-26T00:54:06;9.00;99.90
9209;DHT22;4639;48.862;9.188;2024-02-26T00:56:32;9.10;99.90
9209;DHT22;4639;48.862;9.188;2024-02-26T00:58:58;9.00;99.90
9209;DHT22;4639;48.862;9.188;2024-02-26T01:01:24;8.90;99.90
9209;DHT22;4639;48.862;9.188;2024-02-26T01:03:49;8.90;99.90
9209;DHT22;4639;48.862;9.188;2024-02-26T01:06:15;9.00;99.90
9209;DHT22;4639;48.862;9.188;2024-02-26T01:08:40;8.90;99.90
9209;DHT22;4639;48.862;9.188;2024-02-26T01:11:06;8.80;99.90
9209;DHT22;4639;48.862;9.188;2024-02-26T01:13:32;8.80;99.90
9209;DHT22;4639;48.862;9.188;2024-02-26T01:15:58;8.80;99.90
9209;DHT22;4639;48.862;9.188;2024-02-26T01:18:24;8.80;99.90
9209;DHT22;4639;48.862;9.188;2024-02-26T01:20:50;8.80;99.90
9209;DHT22;4639;48.862;9.188;2024-02-26T01:23:15;8.90;99.90
9209;DHT22;4639;48.862;9.188;2024-02-26T01:25:41;8.70;99.90
9209;DHT22;4639;48.862;9.188;2024-02-26T01:28:08;8.70;99.90
9209;DHT22;4639;48.862;9.188;2024-02-26T01:30:33;8.90;99.90
9209;DHT22;4639;48.862;9.188;2024-02-26T01:32:59;8.60;99.90
9209;DHT22;4639;48.862;9.188;2024-02-26T01:35:24;8.60;99.90
9209;DHT22;4639;48.862;9.188;2024-02-26T01:37:50;8.50;99.90
9209;DHT22;4639;48.862;9.188;2024-02-26T01:40:15;8.60;99.90
9209;DHT22;4639;48.862;9.188;2024-02-26T01:42:45;8.60;99.90
9209;DHT22;4639;48.862;9.188;2024-02-26T01:45:15;8.60;99.90
9209;DHT22;4639;48.862;9.188;2024-02-26T01:47:51;8.60;99.90
9209;DHT22;4639;48.862;9.188;2024-02-26T01:50:17;8.70;99.90
9209;DHT22;4639;48.862;9.188;2024-02-26T01:52:47;8.70;99.90
9209;DHT22;4639;48.862;9.188;2024-02-26T01:55:14;8.70;99.90
9209;DHT22;4639;48.862;9.188;2024-02-26T01:57:45;8.70;99.90
9209;DHT22;4639;48.862;9.188;2024-02-26T02:00:12;8.70;99.90
9209;DHT22;4639;48.862;9.188;2024-02-26T02:02:40;8.60;99.90
9209;DHT22;4639;48.862;9.188;2024-02-26T02:05:08;8.60;99.90
9209;DHT22;4639;48.862;9.188;2024-02-26T02:07:35;8.60;99.90
9209;DHT22;4639;48.862;9.188;2024-02-26T02:10:01;8.70;99.90
9209;DHT22;4639;48.862;9.188;2024-02-26T02:12:27;8.60;99.90
9209;DHT22;4639;48.862;9.188;2024-02-26T02:14:53;8.60;99.90
9209;DHT22;4639;48.862;9.188;2024-02-26T02:17:19;8.70;99.90
9209;DHT22;4639;48.862;9.188;2024-02-26T02:19:45;8.80;99.90
9209;DHT22;4639;48.862;9.188;2024-02-26T02:22:10;8.70;99.90
9209;DHT22;4639;48.862;9.188;2024-02-26T02:24:36;8.70;99.90
9209;DHT22;4639;48.862;9.188;2024-02-26T02:27:02;8.80;99.90
9209;DHT22;4639;48.862;9.188;2024-02-26T02:29:28;8.80;99.90
9209;DHT22;4639;48.862;9.188;2024-02-26T02:31:54;8.80;99.90
9209;DHT22;4639;48.862;9.188;2024-02-26T02:34:21;8.70;99.90
9209;DHT22;4639;48.862;9.188;2024-02-26T02:36:53;8.60;99.90
9209;DHT22;4639;48.862;9.188;2024-02-26T02:39:20;8.60;99.90
9209;DHT22;4639;48.862;9.188;2024-02-26T02:41:46;8.70;99.90
9209;DHT22;4639;48.862;9.188;2024-02-26T02:44:11;8.80;99.90
9209;DHT22;4639;48.862;9.188;2024-02-26T02:46:38;8.70;99.90
9209;DHT22;4639;48.862;9.188;2024-02-26T02:49:04;8.70;99.90
9209;DHT22;4639;48.862;9.188;2024-02-26T02:51:29;8.70;99.90
9209;DHT22;4639;48.862;9.188;2024-02-26T02:53:55;8.60;99.90
9209;DHT22;4639;48.862;9.188;2024-02-26T02:56:21;8.60;99.90
9209;DHT22;4639;48.862;9.188;2024-02-26T02:58:46;8.60;99.90
9209;DHT22;4639;48.862;9.188;2024-02-26T03:01:13;8.50;99.90
9209;DHT22;4639;48.862;9.188;2024-02-26T03:03:39;8.40;99.90
9209;DHT22;4639;48.862;9.188;2024-02-26T03:06:06;8.40;99.90
9209;DHT22;4639;48.862;9.188;2024-02-26T03:08:31;8.50;99.90
9209;DHT22;4639;48.862;9.188;2024-02-26T03:10:58;8.60;99.90
9209;DHT22;4639;48.862;9.188;2024-02-26T03:13:25;8.70;99.90
9209;DHT22;4639;48.862;9.188;2024-02-26T03:15:51;8.80;99.90
9209;DHT22;4639;48.862;9.188;2024-02-26T03:18:17;8.80;99.90
9209;DHT22;4639;48.862;9.188;2024-02-26T03:20:42;8.80;99.90
9209;DHT22;4639;48.862;9.188;2024-02-26T03:23:08;8.70;99.90
9209;DHT22;4639;48.862;9.188;2024-02-26T03:25:39;8.80;99.90
9209;DHT22;4639;48.862;9.188;2024-02-26T03:28:05;8.90;99.90
9209;DHT22;4639;48.862;9.188;2024-02-26T03:30:31;8.80;99.90
9209;DHT22;4639;48.862;9.188;2024-02-26T03:32:59;8.70;99.90
9209;DHT22;4639;48.862;9.188;2024-02-26T03:35:25;8.70;99.90
9209;DHT22;4639;48.862;9.188;2024-02-26T03:37:51;8.70;99.90
9209;DHT22;4639;48.862;9.188;2024-02-26T03:40:17;8.90;99.90
9209;DHT22;4639;48.862;9.188;2024-02-26T03:42:45;8.80;99.90
9209;DHT22;4639;48.862;9.188;2024-02-26T03:45:13;8.90;99.90
9209;DHT22;4639;48.862;9.188;2024-02-26T03:47:46;9.20;99.90
9209;DHT22;4639;48.862;9.188;2024-02-26T03:50:15;8.90;99.90
9209;DHT22;4639;48.862;9.188;2024-02-26T03:52:41;8.80;99.90
9209;DHT22;4639;48.862;9.188;2024-02-26T03:55:08;8.80;99.90
9209;DHT22;4639;48.862;9.188;2024-02-26T03:57:35;8.70;99.90
9209;DHT22;4639;48.862;9.188;2024-02-26T04:00:01;8.80;99.90
9209;DHT22;4639;48.862;9.188;2024-02-26T04:02:27;8.70;99.90
9209;DHT22;4639;48.862;9.188;2024-02-26T04:04:53;8.60;99.90
9209;DHT22;4639;48.862;9.188;2024-02-26T04:07:26;8.60;99.90
9209;DHT22;4639;48.862;9.188;2024-02-26T04:09:52;8.70;99.90
9209;DHT22;4639;48.862;9.188;2024-02-26T04:12:17;8.70;99.90
9209;DHT22;4639;48.862;9.188;2024-02-26T04:14:44;8.60;99.90
9209;DHT22;4639;48.862;9.188;2024-02-26T04:17:10;8.60;99.90
9209;DHT22;4639;48.862;9.188;2024-02-26T04:19:36;8.40;99.90
9209;DHT22;4639;48.862;9.188;2024-02-26T04:22:05;8.40;99.90
9209;DHT22;4639;48.862;9.188;2024-02-26T04:24:31;8.40;99.90
9209;DHT22;4639;48.862;9.188;2024-02-26T04:26:56;8.50;99.90
9209;DHT22;4639;48.862;9.188;2024-02-26T04:29:22;8.40;99.90
9209;DHT22;4639;48.862;9.188;2024-02-26T04:31:51;8.50;99.90
9209;DHT22;4639;48.862;9.188;2024-02-26T04:34:23;8.40;99.90
9209;DHT22;4639;48.862;9.188;2024-02-26T04:36:53;8.40;99.90
9209;DHT22;4639;48.862;9.188;2024-02-26T04:39:25;8.30;99.90
9209;DHT22;4639;48.862;9.188;2024-02-26T04:41:51;8.30;99.90
9209;DHT22;4639;48.862;9.188;2024-02-26T04:44:17;8.30;99.90
9209;DHT22;4639;48.862;9.188;2024-02-26T04:46:43;8.20;99.90
9209;DHT22;4639;48.862;9.188;2024-02-26T04:49:09;8.20;99.90
9209;DHT22;4639;48.862;9.188;2024-02-26T04:51:35;8.20;99.90
9209;DHT22;4639;48.862;9.188;2024-02-26T04:54:05;8.20;99.90
9209;DHT22;4639;48.862;9.188;2024-02-26T04:56:31;8.20;99.90
9209;DHT22;4639;48.862;9.188;2024-02-26T04:59:01;8.60;99.90
9209;DHT22;4639;48.862;9.188;2024-02-26T05:01:27;8.00;99.90
9209;DHT22;4639;48.862;9.188;2024-02-26T05:03:52;8.20;99.90
9209;DHT22;4639;48.862;9.188;2024-02-26T05:06:18;8.40;99.90
9209;DHT22;4639;48.862;9.188;2024-02-26T05:08:46;8.20;99.90
9209;DHT22;4639;48.862;9.188;2024-02-26T05:11:12;8.00;99.90
9209;DHT22;4639;48.862;9.188;2024-02-26T05:13:38;8.40;99.90
9209;DHT22;4639;48.862;9.188;2024-02-26T05:16:04;8.10;99.90
9209;DHT22;4639;48.862;9.188;2024-02-26T05:18:30;8.20;99.90
9209;DHT22;4639;48.862;9.188;2024-02-26T05:20:58;8.30;99.90
9209;DHT22;4639;48.862;9.188;2024-02-26T05:23:25;8.30;99.90
9209;DHT22;4639;48.862;9.188;2024-02-26T05:25:52;8.30;99.90
9209;DHT22;4639;48.862;9.188;2024-02-26T05:28:18;8.40;99.90
9209;DHT22;4639;48.862;9.188;2024-02-26T05:30:46;8.30;99.90
9209;DHT22;4639;48.862;9.188;2024-02-26T05:33:12;8.40;99.90
9209;DHT22;4639;48.862;9.188;2024-02-26T05:35:38;8.30;99.90
9209;DHT22;4639;48.862;9.188;2024-02-26T05:38:04;8.50;99.90
9209;DHT22;4639;48.862;9.188;2024-02-26T05:40:33;8.40;99.90
9209;DHT22;4639;48.862;9.188;2024-02-26T05:42:58;8.40;99.90
9209;DHT22;4639;48.862;9.188;2024-02-26T05:45:31;8.50;99.90
9209;DHT22;4639;48.862;9.188;2024-02-26T05:47:58;8.40;99.90
9209;DHT22;4639;48.862;9.188;2024-02-26T05:50:26;8.40;99.90
9209;DHT22;4639;48.862;9.188;2024-02-26T05:52:55;8.40;99.90
9209;DHT22;4639;48.862;9.188;2024-02-26T05:55:21;8.30;99.90
9209;DHT22;4639;48.862;9.188;2024-02-26T05:57:46;8.40;99.90
9209;DHT22;4639;48.862;9.188;2024-02-26T06:00:12;8.30;99.90
9209;DHT22;4639;48.862;9.188;2024-02-26T06:02:38;8.40;99.90
9209;DHT22;4639;48.862;9.188;2024-02-26T06:05:04;8.40;99.90
9209;DHT22;4639;48.862;9.188;2024-02-26T06:07:30;8.40;99.90
9209;DHT22;4639;48.862;9.188;2024-02-26T06:09:55;8.40;99.90
9209;DHT22;4639;48.862;9.188;2024-02-26T06:12:21;8.40;99.90
9209;DHT22;4639;48.862;9.188;2024-02-26T06:14:47;8.50;99.90
9209;DHT22;4639;48.862;9.188;2024-02-26T06:17:12;8.50;99.90
9209;DHT22;4639;48.862;9.188;2024-02-26T06:19:38;8.50;99.90
9209;DHT22;4639;48.862;9.188;2024-02-26T06:22:03;8.50;99.90
9209;DHT22;4639;48.862;9.188;2024-02-26T06:24:29;8.60;99.90
9209;DHT22;4639;48.862;9.188;2024-02-26T06:26:55;8.60;99.90
9209;DHT22;4639;48.862;9.188;2024-02-26T06:29:20;8.50;99.90
9209;DHT22;4639;48.862;9.188;2024-02-26T06:31:46;8.90;99.90
9209;DHT22;4639;48.862;9.188;2024-02-26T06:34:13;8.90;99.90
9209;DHT22;4639;48.862;9.188;2024-02-26T06:36:39;8.60;99.90
9209;DHT22;4639;48.862;9.188;2024-02-26T06:39:04;8.60;99.90
9209;DHT22;4639;48.862;9.188;2024-02-26T06:41:31;8.70;99.90
9209;DHT22;4639;48.862;9.188;2024-02-26T06:43:56;8.70;99.90
9209;DHT22;4639;48.862;9.188;2024-02-26T06:46:22;8.70;99.90
9209;DHT22;4639;48.862;9.188;2024-02-26T06:48:48;8.70;99.90
9209;DHT22;4639;48.862;9.188;2024-02-26T06:51:14;8.80;99.90
9209;DHT22;4639;48.862;9.188;2024-02-26T06:53:40;8.60;99.90
9209;DHT22;4639;48.862;9.188;2024-02-26T06:56:07;8.60;99.90
9209;DHT22;4639;48.862;9.188;2024-02-26T06:58:32;8.60;99.90
9209;DHT22;4639;48.862;9.188;2024-02-26T07:00:58;8.60;99.90
9209;DHT22;4639;48.862;9.188;2024-02-26T07:03:24;8.70;99.90
9209;DHT22;4639;48.862;9.188;2024-02-26T07:05:51;8.60;99.90
9209;DHT22;4639;48.862;9.188;2024-02-26T07:08:17;8.50;99.90
9209;DHT22;4639;48.862;9.188;2024-02-26T07:10:42;8.50;99.90
9209;DHT22;4639;48.862;9.188;2024-02-26T07:13:08;8.50;99.90
9209;DHT22;4639;48.862;9.188;2024-02-26T07:15:34;8.50;99.90
9209;DHT22;4639;48.862;9.188;2024-02-26T07:17:59;8.50;99.90
9209;DHT22;4639;48.862;9.188;2024-02-26T07:20:29;8.50;99.90
9209;DHT22;4639;48.862;9.188;2024-02-26T07:22:55;8.50;99.90
9209;DHT22;4639;48.862;9.188;2024-02-26T07:25:21;8.50;99.90
9209;DHT22;4639;48.862;9.188;2024-02-26T07:27:46;8.50;99.90
9209;DHT22;4639;48.862;9.188;2024-02-26T07:30:12;8.80;99.90
9209;DHT22;4639;48.862;9.188;2024-02-26T07:32:38;8.60;99.90
9209;DHT22;4639;48.862;9.188;2024-02-26T07:35:04;8.50;99.90
9209;DHT22;4639;48.862;9.188;2024-02-26T07:37:30;8.60;99.90
9209;DHT22;4639;48.862;9.188;2024-02-26T07:39:56;8.60;99.90
9209;DHT22;4639;48.862;9.188;2024-02-26T07:42:22;8.70;99.90
9209;DHT22;4639;48.862;9.188;2024-02-26T07:44:47;8.70;99.90
9209;DHT22;4639;48.862;9.188;2024-02-26T07:47:13;8.70;99.90
9209;DHT22;4639;48.862;9.188;2024-02-26T07:49:39;8.80;99.90
9209;DHT22;4639;48.862;9.188;2024-02-26T07:52:05;8.90;99.90
9209;DHT22;4639;48.862;9.188;2024-02-26T07:54:31;8.80;99.90
9209;DHT22;4639;48.862;9.188;2024-02-26T07:56:56;9.10;99.90
9209;DHT22;4639;48.862;9.188;2024-02-26T07:59:22;9.00;99.90
9209;DHT22;4639;48.862;9.188;2024-02-26T08:01:51;9.00;99.90
9209;DHT22;4639;48.862;9.188;2024-02-26T08:04:17;8.90;99.90
9209;DHT22;4639;48.862;9.188;2024-02-26T08:06:42;8.90;99.90
9209;DHT22;4639;48.862;9.188;2024-02-26T08:09:08;8.80;99.90
9209;DHT22;4639;48.862;9.188;2024-02-26T08:11:34;8.70;99.90
9209;DHT22;4639;48.862;9.188;2024-02-26T08:13:59;8.60;99.90
9209;DHT22;4639;48.862;9.188;2024-02-26T08:16:25;8.60;99.90
9209;DHT22;4639;48.862;9.188;2024-02-26T08:18:50;8.60;99.90
9209;DHT22;4639;48.862;9.188;2024-02-26T08:21:16;8.70;99.90
9209;DHT22;4639;48.862;9.188;2024-02-26T08:23:43;8.70;99.90
9209;DHT22;4639;48.862;9.188;2024-02-26T08:26:09;8.80;99.90
9209;DHT22;4639;48.862;9.188;2024-02-26T08:28:37;9.10;99.90
9209;DHT22;4639;48.862;9.188;2024-02-26T08:31:03;8.90;99.90
9209;DHT22;4639;48.862;9.188;2024-02-26T08:33:28;9.00;99.90
9209;DHT22;4639;48.862;9.188;2024-02-26T08:35:54;9.10;99.90
9209;DHT22;4639;48.862;9.188;2024-02-26T08:38:20;9.20;99.90
9209;DHT22;4639;48.862;9.188;2024-02-26T08:40:45;9.30;99.90
9209;DHT22;4639;48.862;9.188;2024-02-26T08:43:11;9.20;99.90
9209;DHT22;4639;48.862;9.188;2024-02-26T08:45:36;9.30;99.90
9209;DHT22;4639;48.862;9.188;2024-02-26T08:48:02;9.30;99.90
9209;DHT22;4639;48.862;9.188;2024-02-26T08:50:28;9.30;99.90
9209;DHT22;4639;48.862;9.188;2024-02-26T08:52:54;9.30;99.90
9209;DHT22;4639;48.862;9.188;2024-02-26T08:55:19;9.30;99.90
9209;DHT22;4639;48.862;9.188;2024-02-26T08:57:45;9.30;99.90
9209;DHT22;4639;48.862;9.188;2024-02-26T09:00:11;9.30;99.90
9209;DHT22;4639;48.862;9.188;2024-02-26T09:02:37;9.30;99.90
9209;DHT22;4639;48.862;9.188;2024-02-26T09:05:10;9.40;99.90
9209;DHT22;4639;48.862;9.188;2024-02-26T09:07:36;9.30;99.90
9209;DHT22;4639;48.862;9.188;2024-02-26T09:10:02;9.40;99.90
9209;DHT22;4639;48.862;9.188;2024-02-26T09:12:27;9.40;99.90
9209;DHT22;4639;48.862;9.188;2024-02-26T09:14:54;9.40;99.90
9209;DHT22;4639;48.862;9.188;2024-02-26T09:17:21;9.50;99.90
9209;DHT22;4639;48.862;9.188;2024-02-26T09:19:47;9.50;99.90
9209;DHT22;4639;48.862;9.188;2024-02-26T09:22:12;9.50;99.90
9209;DHT22;4639;48.862;9.188;2024-02-26T09:24:38;9.60;99.90
9209;DHT22;4639;48.862;9.188;2024-02-26T09:27:04;9.60;99.90
9209;DHT22;4639;48.862;9.188;2024-02-26T09:29:29;9.70;99.90
9209;DHT22;4639;48.862;9.188;2024-02-26T09:31:55;9.80;99.90
9209;DHT22;4639;48.862;9.188;2024-02-26T09:34:21;9.90;99.90
9209;DHT22;4639;48.862;9.188;2024-02-26T09:36:46;9.90;99.90
9209;DHT22;4639;48.862;9.188;2024-02-26T09:39:12;9.90;99.90
9209;DHT22;4639;48.862;9.188;2024-02-26T09:41:40;10.00;99.90
9209;DHT22;4639;48.862;9.188;2024-02-26T09:44:06;10.00;99.90
9209;DHT22;4639;48.862;9.188;2024-02-26T09:46:32;10.20;99.90
9209;DHT22;4639;48.862;9.188;2024-02-26T09:48:58;10.00;99.90
9209;DHT22;4639;48.862;9.188;2024-02-26T09:51:24;10.10;99.90
9209;DHT22;4639;48.862;9.188;2024-02-26T09:53:52;10.10;99.90
9209;DHT22;4639;48.862;9.188;2024-02-26T09:56:17;10.20;99.90
9209;DHT22;4639;48.862;9.188;2024-02-26T09:58:43;10.10;99.90
9209;DHT22;4639;48.862;9.188;2024-02-26T10:01:16;10.20;99.90
9209;DHT22;4639;48.862;9.188;2024-02-26T10:03:42;10.20;99.90
9209;DHT22;4639;48.862;9.188;2024-02-26T10:06:10;10.30;99.90
9209;DHT22;4639;48.862;9.188;2024-02-26T10:08:36;10.50;99.90
9209;DHT22;4639;48.862;9.188;2024-02-26T10:11:04;10.60;99.90
9209;DHT22;4639;48.862;9.188;2024-02-26T10:13:30;10.70;99.90
9209;DHT22;4639;48.862;9.188;2024-02-26T10:15:56;10.80;99.90
9209;DHT22;4639;48.862;9.188;2024-02-26T10:18:25;10.90;99.90
9209;DHT22;4639;48.862;9.188;2024-02-26T10:21:01;11.20;99.90
9209;DHT22;4639;48.862;9.188;2024-02-26T10:23:29;11.40;99.90
9209;DHT22;4639;48.862;9.188;2024-02-26T10:25:55;11.70;99.90
9209;DHT22;4639;48.862;9.188;2024-02-26T10:28:22;11.90;99.90
9209;DHT22;4639;48.862;9.188;2024-02-26T10:30:47;12.00;99.90
9209;DHT22;4639;48.862;9.188;2024-02-26T10:33:13;12.40;99.90
9209;DHT22;4639;48.862;9.188;2024-02-26T10:35:45;12.40;99.90
9209;DHT22;4639;48.862;9.188;2024-02-26T10:38:10;12.90;99.90
9209;DHT22;4639;48.862;9.188;2024-02-26T10:40:37;13.50;99.90
9209;DHT22;4639;48.862;9.188;2024-02-26T10:43:02;13.50;99.90
9209;DHT22;4639;48.862;9.188;2024-02-26T10:45:28;13.60;99.90
9209;DHT22;4639;48.862;9.188;2024-02-26T10:47:54;13.70;99.90
9209;DHT22;4639;48.862;9.188;2024-02-26T10:50:20;14.20;99.90
9209;DHT22;4639;48.862;9.188;2024-02-26T10:52:45;14.10;99.90
9209;DHT22;4639;48.862;9.188;2024-02-26T10:55:16;14.10;99.90
9209;DHT22;4639;48.862;9.188;2024-02-26T10:57:47;13.70;99.90
9209;DHT22;4639;48.862;9.188;2024-02-26T11:00:15;13.70;99.90
9209;DHT22;4639;48.862;9.188;2024-02-26T11:02:41;13.50;99.90
9209;DHT22;4639;48.862;9.188;2024-02-26T11:05:09;13.50;99.90
9209;DHT22;4639;48.862;9.188;2024-02-26T11:07:36;13.60;99.90
9209;DHT22;4639;48.862;9.188;2024-02-26T11:10:06;13.90;99.90
9209;DHT22;4639;48.862;9.188;2024-02-26T11:12:35;14.10;99.90
9209;DHT22;4639;48.862;9.188;2024-02-26T11:15:03;14.30;99.90
9209;DHT22;4639;48.862;9.188;2024-02-26T11:17:29;14.60;99.90
9209;DHT22;4639;48.862;9.188;2024-02-26T11:20:00;14.90;99.90
9209;DHT22;4639;48.862;9.188;2024-02-26T11:22:28;14.90;99.90
9209;DHT22;4639;48.862;9.188;2024-02-26T11:24:55;14.70;99.90
9209;DHT22;4639;48.862;9.188;2024-02-26T11:27:33;14.60;99.90
9209;DHT22;4639;48.862;9.188;2024-02-26T11:30:01;14.60;99.90
9209;DHT22;4639;48.862;9.188;2024-02-26T11:32:28;14.70;99.90
9209;DHT22;4639;48.862;9.188;2024-02-26T11:34:56;14.90;99.90
9209;DHT22;4639;48.862;9.188;2024-02-26T11:37:22;14.90;99.90
9209;DHT22;4639;48.862;9.188;2024-02-26T11:39:48;14.70;99.90
9209;DHT22;4639;48.862;9.188;2024-02-26T11:42:16;14.40;99.90
9209;DHT22;4639;48.862;9.188;2024-02-26T11:44:42;14.30;99.90
9209;DHT22;4639;48.862;9.188;2024-02-26T11:47:18;14.60;99.90
9209;DHT22;4639;48.862;9.188;2024-02-26T11:49:43;14.40;99.90
9209;DHT22;4639;48.862;9.188;2024-02-26T11:52:10;14.50;99.90
9209;DHT22;4639;48.862;9.188;2024-02-26T12:00:13;15.00;99.90
9209;DHT22;4639;48.862;9.188;2024-02-26T12:07:45;15.40;99.90
9209;DHT22;4639;48.862;9.188;2024-02-26T12:15:23;15.70;99.90
9209;DHT22;4639;48.862;9.188;2024-02-26T12:17:49;15.70;99.90
9209;DHT22;4639;48.862;9.188;2024-02-26T12:20:17;15.40;99.90
9209;DHT22;4639;48.862;9.188;2024-02-26T12:22:46;15.20;99.90
9209;DHT22;4639;48.862;9.188;2024-02-26T12:25:14;15.20;99.90
9209;DHT22;4639;48.862;9.188;2024-02-26T12:27:39;15.00;99.90
9209;DHT22;4639;48.862;9.188;2024-02-26T12:30:05;14.90;99.90
9209;DHT22;4639;48.862;9.188;2024-02-26T12:32:32;14.80;99.90
9209;DHT22;4639;48.862;9.188;2024-02-26T12:34:58;14.80;99.90
9209;DHT22;4639;48.862;9.188;2024-02-26T12:37:25;14.80;99.90
9209;DHT22;4639;48.862;9.188;2024-02-26T12:39:51;14.80;99.90
9209;DHT22;4639;48.862;9.188;2024-02-26T12:42:16;14.70;99.90
9209;DHT22;4639;48.862;9.188;2024-02-26T12:44:45;14.80;99.90
9209;DHT22;4639;48.862;9.188;2024-02-26T12:47:11;14.70;99.90
9209;DHT22;4639;48.862;9.188;2024-02-26T12:49:42;14.60;99.90
9209;DHT22;4639;48.862;9.188;2024-02-26T12:52:10;14.70;99.90
9209;DHT22;4639;48.862;9.188;2024-02-26T12:54:36;14.80;99.90
9209;DHT22;4639;48.862;9.188;2024-02-26T12:57:05;15.10;99.90
9209;DHT22;4639;48.862;9.188;2024-02-26T12:59:32;14.90;99.90
9209;DHT22;4639;48.862;9.188;2024-02-26T13:01:59;14.90;99.90
9209;DHT22;4639;48.862;9.188;2024-02-26T13:04:26;15.10;99.90
9209;DHT22;4639;48.862;9.188;2024-02-26T13:06:53;15.00;99.90
9209;DHT22;4639;48.862;9.188;2024-02-26T13:09:18;15.10;99.90
9209;DHT22;4639;48.862;9.188;2024-02-26T13:11:44;14.90;99.90
9209;DHT22;4639;48.862;9.188;2024-02-26T13:14:20;15.00;99.90
9209;DHT22;4639;48.862;9.188;2024-02-26T13:16:57;15.30;99.90
9209;DHT22;4639;48.862;9.188;2024-02-26T13:19:23;15.20;99.90
9209;DHT22;4639;48.862;9.188;2024-02-26T13:21:49;15.20;99.90
9209;DHT22;4639;48.862;9.188;2024-02-26T13:24:15;15.30;99.90
9209;DHT22;4639;48.862;9.188;2024-02-26T13:26:41;15.40;99.90
9209;DHT22;4639;48.862;9.188;2024-02-26T13:29:07;15.70;99.90
9209;DHT22;4639;48.862;9.188;2024-02-26T13:31:42;15.50;99.90
9209;DHT22;4639;48.862;9.188;2024-02-26T13:34:10;15.80;99.90
9209;DHT22;4639;48.862;9.188;2024-02-26T13:36:35;15.80;99.90
9209;DHT22;4639;48.862;9.188;2024-02-26T13:39:01;15.90;99.90
9209;DHT22;4639;48.862;9.188;2024-02-26T13:41:30;16.10;99.90
9209;DHT22;4639;48.862;9.188;2024-02-26T13:43:56;16.20;99.90
9209;DHT22;4639;48.862;9.188;2024-02-26T13:46:23;16.70;99.90
9209;DHT22;4639;48.862;9.188;2024-02-26T13:48:48;16.30;99.90
9209;DHT22;4639;48.862;9.188;2024-02-26T13:51:14;16.40;99.90
9209;DHT22;4639;48.862;9.188;2024-02-26T13:53:40;16.30;99.90
9209;DHT22;4639;48.862;9.188;2024-02-26T13:56:06;16.20;99.90
9209;DHT22;4639;48.862;9.188;2024-02-26T13:58:32;16.20;99.90
9209;DHT22;4639;48.862;9.188;2024-02-26T14:00:58;16.40;99.90
9209;DHT22;4639;48.862;9.188;2024-02-26T14:03:25;16.40;99.90
9209;DHT22;4639;48.862;9.188;2024-02-26T14:05:50;16.20;99.90
9209;DHT22;4639;48.862;9.188;2024-02-26T14:08:16;16.10;99.90
9209;DHT22;4639;48.862;9.188;2024-02-26T14:10:41;16.20;99.90
9209;DHT22;4639;48.862;9.188;2024-02-26T14:13:07;16.20;99.90
9209;DHT22;4639;48.862;9.188;2024-02-26T14:15:34;16.30;99.90
9209;DHT22;4639;48.862;9.188;2024-02-26T14:18:01;16.30;99.90
9209;DHT22;4639;48.862;9.188;2024-02-26T14:20:28;16.20;99.90
9209;DHT22;4639;48.862;9.188;2024-02-26T14:22:54;16.40;99.90
9209;DHT22;4639;48.862;9.188;2024-02-26T14:25:20;16.20;99.90
9209;DHT22;4639;48.862;9.188;2024-02-26T14:27:47;16.20;99.90
9209;DHT22;4639;48.862;9.188;2024-02-26T14:30:13;16.30;99.90
9209;DHT22;4639;48.862;9.188;2024-02-26T14:32:39;16.20;99.90
9209;DHT22;4639;48.862;9.188;2024-02-26T14:35:06;16.20;99.90
9209;DHT22;4639;48.862;9.188;2024-02-26T14:37:32;16.30;99.90
9209;DHT22;4639;48.862;9.188;2024-02-26T14:39:58;16.40;99.90
9209;DHT22;4639;48.862;9.188;2024-02-26T14:42:24;16.40;99.90
9209;DHT22;4639;48.862;9.188;2024-02-26T14:44:50;16.40;99.90
9209;DHT22;4639;48.862;9.188;2024-02-26T14:47:16;16.50;99.90
9209;DHT22;4639;48.862;9.188;2024-02-26T14:49:42;16.80;99.90
9209;DHT22;4639;48.862;9.188;2024-02-26T14:52:08;16.50;99.90
9209;DHT22;4639;48.862;9.188;2024-02-26T14:54:34;16.70;99.90
9209;DHT22;4639;48.862;9.188;2024-02-26T14:57:04;16.60;99.90
9209;DHT22;4639;48.862;9.188;2024-02-26T14:59:30;16.60;99.90
9209;DHT22;4639;48.862;9.188;2024-02-26T15:01:57;16.50;99.90
9209;DHT22;4639;48.862;9.188;2024-02-26T15:04:23;16.40;99.90
9209;DHT22;4639;48.862;9.188;2024-02-26T15:06:48;16.40;99.90
9209;DHT22;4639;48.862;9.188;2024-02-26T15:09:14;16.40;99.90
9209;DHT22;4639;48.862;9.188;2024-02-26T15:11:40;16.40;99.90
9209;DHT22;4639;48.862;9.188;2024-02-26T15:14:09;16.30;99.90
9209;DHT22;4639;48.862;9.188;2024-02-26T15:16:35;16.20;99.90
9209;DHT22;4639;48.862;9.188;2024-02-26T15:19:01;16.20;99.90
9209;DHT22;4639;48.862;9.188;2024-02-26T15:21:27;15.80;99.90
9209;DHT22;4639;48.862;9.188;2024-02-26T15:23:53;15.70;99.90
9209;DHT22;4639;48.862;9.188;2024-02-26T15:26:19;15.40;99.90
9209;DHT22;4639;48.862;9.188;2024-02-26T15:28:46;15.30;99.90
9209;DHT22;4639;48.862;9.188;2024-02-26T15:31:12;15.60;99.90
9209;DHT22;4639;48.862;9.188;2024-02-26T15:33:37;15.40;99.90
9209;DHT22;4639;48.862;9.188;2024-02-26T15:36:03;15.20;99.90
9209;DHT22;4639;48.862;9.188;2024-02-26T15:38:29;15.00;99.90
9209;DHT22;4639;48.862;9.188;2024-02-26T15:40:55;14.90;99.90
9209;DHT22;4639;48.862;9.188;2024-02-26T15:43:20;14.80;99.90
9209;DHT22;4639;48.862;9.188;2024-02-26T15:45:47;14.80;99.90
9209;DHT22;4639;48.862;9.188;2024-02-26T15:48:13;14.80;99.90
9209;DHT22;4639;48.862;9.188;2024-02-26T15:50:39;14.70;99.90
9209;DHT22;4639;48.862;9.188;2024-02-26T15:53:07;14.60;99.90
9209;DHT22;4639;48.862;9.188;2024-02-26T15:55:34;14.50;99.90
9209;DHT22;4639;48.862;9.188;2024-02-26T15:58:00;14.40;99.90
9209;DHT22;4639;48.862;9.188;2024-02-26T16:00:25;14.50;99.90
9209;DHT22;4639;48.862;9.188;2024-02-26T16:02:52;14.40;99.90
9209;DHT22;4639;48.862;9.188;2024-02-26T16:05:17;14.70;99.90
9209;DHT22;4639;48.862;9.188;2024-02-26T16:07:51;14.30;99.90
9209;DHT22;4639;48.862;9.188;2024-02-26T16:10:20;13.90;99.90
9209;DHT22;4639;48.862;9.188;2024-02-26T16:12:52;14.30;99.90
9209;DHT22;4639;48.862;9.188;2024-02-26T16:15:19;14.20;99.90
9209;DHT22;4639;48.862;9.188;2024-02-26T16:17:49;14.10;99.90
9209;DHT22;4639;48.862;9.188;2024-02-26T16:20:18;14.10;99.90
9209;DHT22;4639;48.862;9.188;2024-02-26T16:22:48;14.00;99.90